createdAt,value
2023-03-24T00:00:38.169Z,8.5
2023-03-24T00:03:46.624Z,8.1
2023-03-24T00:06:36.663Z,9.1
2023-03-24T00:09:24.304Z,8.2
2023-03-24T00:12:13.503Z,8
2023-03-24T00:15:03.189Z,8.8
2023-03-24T00:17:54.438Z,7.1
2023-03-24T00:20:42.887Z,7.1
2023-03-24T00:23:31.646Z,9.3
2023-03-24T00:26:20.037Z,8.4
2023-03-24T00:29:09.460Z,8.4
2023-03-24T00:31:58.277Z,8.1
2023-03-24T00:34:46.404Z,8.7
2023-03-24T00:37:34.308Z,10
2023-03-24T00:40:22.444Z,8.4
2023-03-24T00:43:10.025Z,8.1
2023-03-24T00:45:58.145Z,8.8
2023-03-24T00:48:47.289Z,7.8
2023-03-24T00:51:38.694Z,8.7
2023-03-24T00:54:27.702Z,7.8
2023-03-24T00:57:16.807Z,8.7
2023-03-24T01:00:06.511Z,7
2023-03-24T01:02:58.205Z,8
2023-03-24T01:05:47.834Z,8.2
2023-03-24T01:08:35.716Z,8.5
2023-03-24T01:11:23.417Z,7.2
2023-03-24T01:14:14.269Z,6.8
2023-03-24T01:17:02.207Z,6.9
2023-03-24T01:19:51.065Z,7.7
2023-03-24T01:22:38.815Z,7.3
2023-03-24T01:25:29.442Z,8
2023-03-24T01:28:17.521Z,7
2023-03-24T01:31:09.447Z,6.7
2023-03-24T01:33:57.239Z,7.7
2023-03-24T01:36:45.210Z,8.1
2023-03-24T01:39:33.958Z,7.5
2023-03-24T01:42:21.480Z,7.4
2023-03-24T01:45:10.905Z,6.9
2023-03-24T01:48:40.939Z,6.2
2023-03-24T01:51:35.651Z,6.3
2023-03-24T01:54:26.012Z,6.9
2023-03-24T01:57:18.748Z,6.9
2023-03-24T02:00:10.098Z,6.2
2023-03-24T02:03:02.799Z,6.7
2023-03-24T02:05:55.336Z,6.2
2023-03-24T02:08:43.052Z,5.7
2023-03-24T02:11:43.937Z,6.2
2023-03-24T02:14:32.773Z,5.4
2023-03-24T02:17:20.565Z,5.1
2023-03-24T02:20:25.833Z,5.9
2023-03-24T02:23:31.957Z,5.2
2023-03-24T02:26:41.036Z,6
2023-03-24T02:29:41.824Z,5.8
2023-03-24T02:33:08.589Z,5.5
2023-03-24T02:36:21.733Z,4.7
2023-03-24T02:39:28.032Z,5.1
2023-03-24T02:42:26.364Z,6
2023-03-24T02:45:27.328Z,4.8
2023-03-24T02:48:22.255Z,5.9
2023-03-24T02:51:19.917Z,5.2
2023-03-24T02:54:12.752Z,5.5
2023-03-24T02:57:04.022Z,5.2
2023-03-24T02:59:55.251Z,4.4
2023-03-24T03:02:47.355Z,3.9
2023-03-24T03:05:41.744Z,4.7
2023-03-24T03:08:35.109Z,4.4
2023-03-24T03:11:25.778Z,4.5
2023-03-24T03:14:13.451Z,3.8
2023-03-24T03:17:05.952Z,4.2
2023-03-24T03:20:00.439Z,4.2
2023-03-24T03:22:55.913Z,4.8
2023-03-24T03:25:48.636Z,4.3
2023-03-24T03:28:42.156Z,4.3
2023-03-24T03:31:42.258Z,4.4
2023-03-24T03:34:36.342Z,3.9
2023-03-24T03:37:32.267Z,4.6
2023-03-24T03:40:28.120Z,5.2
2023-03-24T03:43:22.187Z,4.7
2023-03-24T03:46:10.787Z,4.5
2023-03-24T03:48:59.543Z,5.2
2023-03-24T03:51:47.683Z,5.5
2023-03-24T03:54:35.735Z,5.1
2023-03-24T03:57:25.396Z,4.8
2023-03-24T04:00:13.116Z,5.1
2023-03-24T04:03:04.596Z,5.2
2023-03-24T04:06:09.781Z,5.9
2023-03-24T04:09:11.745Z,6
2023-03-24T04:12:15.449Z,5.2
2023-03-24T04:15:18.585Z,5.3
2023-03-24T04:18:19.476Z,5.5
2023-03-24T04:21:26.722Z,5.1
2023-03-24T04:24:52.180Z,5.8
2023-03-24T04:27:44.890Z,5.8
2023-03-24T04:30:45.804Z,5.6
2023-03-24T04:33:40.734Z,5.6
2023-03-24T04:36:35.036Z,5.2
2023-03-24T04:39:27.280Z,5.7
2023-03-24T04:42:18.779Z,4.9
2023-03-24T04:45:12.052Z,5.5
2023-03-24T04:48:01.814Z,6.2
2023-03-24T04:50:53.331Z,6.7
2023-03-24T04:53:43.654Z,6.2
2023-03-24T04:56:33.269Z,5.2
2023-03-24T04:59:26.457Z,5.6
2023-03-24T05:02:14.506Z,4.9
2023-03-24T05:05:02.310Z,5.7
2023-03-24T05:07:50.831Z,6
2023-03-24T05:10:39.212Z,5.2
2023-03-24T05:13:26.919Z,5.7
2023-03-24T05:16:14.821Z,6.3
2023-03-24T05:19:02.564Z,5.7
2023-03-24T05:21:50.506Z,8.1
2023-03-24T05:24:39.225Z,7.6
2023-03-24T05:27:26.861Z,5.6
2023-03-24T05:30:14.893Z,6.2
2023-03-24T05:33:04.950Z,6.3
2023-03-24T05:35:52.729Z,5.7
2023-03-24T05:38:40.695Z,4.7
2023-03-24T05:41:28.505Z,4.6
2023-03-24T05:44:17.750Z,5.5
2023-03-24T05:47:05.423Z,5.2
2023-03-24T05:49:54.482Z,4.6
2023-03-24T05:52:42.677Z,4.9
2023-03-24T05:55:31.698Z,4.8
2023-03-24T05:58:20.231Z,4.7
2023-03-24T06:01:08.750Z,4.4
2023-03-24T06:03:57.583Z,4.7
2023-03-24T06:06:45.838Z,4.3
2023-03-24T06:09:34.705Z,4.6
2023-03-24T06:12:22.276Z,4.9
2023-03-24T06:15:10.166Z,5.2
2023-03-24T06:18:02.060Z,4.6
2023-03-24T06:20:49.935Z,5
2023-03-24T06:23:41.199Z,4.8
2023-03-24T06:26:28.848Z,5.3
2023-03-24T06:29:16.683Z,4.5
2023-03-24T06:32:04.284Z,5.8
2023-03-24T06:34:52.630Z,4.5
2023-03-24T06:37:40.529Z,4.7
2023-03-24T06:40:28.213Z,4.2
2023-03-24T06:43:16.701Z,4.8
2023-03-24T06:46:04.181Z,4.7
2023-03-24T06:48:52.504Z,5.3
2023-03-24T06:51:40.231Z,4.1
2023-03-24T06:54:27.927Z,4.1
2023-03-24T06:57:15.610Z,4.8
2023-03-24T07:00:03.459Z,5
2023-03-24T07:02:53.917Z,4.4
2023-03-24T07:05:42.146Z,4.2
2023-03-24T07:08:38.042Z,5.1
2023-03-24T07:11:26.364Z,5.1
2023-03-24T07:14:14.100Z,4.2
2023-03-24T07:17:01.765Z,4.4
2023-03-24T07:19:49.503Z,4.5
2023-03-24T07:22:37.328Z,4.5
2023-03-24T07:25:25.218Z,4.8
2023-03-24T07:28:13.765Z,4.4
2023-03-24T07:31:01.858Z,3.9
2023-03-24T07:33:55.770Z,4.6
2023-03-24T07:36:43.787Z,4.3
2023-03-24T07:39:32.465Z,4.8
2023-03-24T07:42:20.180Z,4.2
2023-03-24T07:45:07.840Z,4.5
2023-03-24T07:47:57.683Z,4.5
2023-03-24T07:50:47.114Z,5.5
2023-03-24T07:53:37.228Z,4.6
2023-03-24T07:56:24.829Z,5
2023-03-24T07:59:12.495Z,4.4
2023-03-24T08:02:00.427Z,3.7
2023-03-24T08:04:48.494Z,4.4
2023-03-24T08:07:39.286Z,4.2
2023-03-24T08:10:29.542Z,4.4
2023-03-24T08:13:17.222Z,4.5
2023-03-24T08:16:06.176Z,4.7
2023-03-24T08:18:54.404Z,4.9
2023-03-24T08:21:43.021Z,4.4
2023-03-24T08:24:31.898Z,4.4
2023-03-24T08:27:22.019Z,4.3
2023-03-24T08:30:09.827Z,3.8
2023-03-24T08:33:01.815Z,4.3
2023-03-24T08:35:51.023Z,4.7
2023-03-24T08:38:42.089Z,4.7
2023-03-24T08:41:32.789Z,3.3
2023-03-24T08:44:20.545Z,4.4
2023-03-24T08:47:08.157Z,4.3
2023-03-24T08:49:55.970Z,3.8
2023-03-24T08:52:43.879Z,4.2
2023-03-24T08:55:32.894Z,4.2
2023-03-24T08:58:22.465Z,3.5
2023-03-24T09:01:10.240Z,4.1
2023-03-24T09:03:58.225Z,4.2
2023-03-24T09:06:46.190Z,3.4
2023-03-24T09:09:34.920Z,3.3
2023-03-24T09:12:24.223Z,3.3
2023-03-24T09:15:13.330Z,3.1
2023-03-24T09:18:01.305Z,3.1
2023-03-24T09:20:50.021Z,3.4
2023-03-24T09:23:38.037Z,3.8
2023-03-24T09:26:25.902Z,3.7
2023-03-24T09:29:14.646Z,3.6
2023-03-24T09:32:03.296Z,3.4
2023-03-24T09:34:50.992Z,3.8
2023-03-24T09:37:38.759Z,3.7
2023-03-24T09:40:28.429Z,3.7
2023-03-24T09:43:18.508Z,3.9
2023-03-24T09:46:12.537Z,3.7
2023-03-24T09:49:08.722Z,3.5
2023-03-24T09:51:58.942Z,3.4
2023-03-24T09:54:50.833Z,4.1
2023-03-24T09:57:41.008Z,4.1
2023-03-24T10:00:32.392Z,4.2
2023-03-24T10:03:21.787Z,4.1
2023-03-24T10:06:09.717Z,4.2
2023-03-24T10:09:07.470Z,4.3
2023-03-24T10:12:08.380Z,4
2023-03-24T10:15:10.289Z,4
2023-03-24T10:18:05.674Z,4.4
2023-03-24T10:21:09.246Z,4.6
2023-03-24T10:24:04.580Z,4.5
2023-03-24T10:27:00.938Z,4.2
2023-03-24T10:29:55.107Z,4.1
2023-03-24T10:32:50.272Z,4.5
2023-03-24T10:35:39.560Z,4.4
2023-03-24T10:38:36.357Z,4.3
2023-03-24T10:41:24.138Z,3.3
2023-03-24T10:44:14.183Z,4.2
2023-03-24T10:47:03.362Z,3.5
2023-03-24T10:49:53.806Z,3.1
2023-03-24T10:52:44.453Z,3.3
2023-03-24T10:55:35.301Z,3.9
2023-03-24T10:58:24.679Z,4.2
2023-03-24T11:01:21.368Z,3.8
2023-03-24T11:04:12.793Z,4.4
2023-03-24T11:07:04.596Z,4.5
2023-03-24T11:10:02.361Z,3.5
2023-03-24T11:13:00.212Z,3.6
2023-03-24T11:15:50.235Z,3.9
2023-03-24T11:18:41.788Z,3.8
2023-03-24T11:21:47.315Z,3.9
2023-03-24T11:24:37.828Z,4.1
2023-03-24T11:27:25.940Z,3.5
2023-03-24T11:30:13.535Z,4.1
2023-03-24T11:33:02.035Z,4.3
2023-03-24T11:35:56.075Z,3.9
2023-03-24T11:39:30.526Z,3.7
2023-03-24T11:42:19.180Z,3.8
2023-03-24T11:45:12.799Z,4.2
2023-03-24T11:48:19.570Z,3.5
2023-03-24T11:51:12.956Z,4.2
2023-03-24T11:54:08.710Z,4.2
2023-03-24T11:57:00.352Z,4
2023-03-24T11:59:52.912Z,3.6
2023-03-24T12:02:48.636Z,3.8
2023-03-24T12:06:04.885Z,3.5
2023-03-24T12:09:04.417Z,4.1
2023-03-24T12:12:08.174Z,3.7
2023-03-24T12:15:24.571Z,3.8
2023-03-24T12:18:25.014Z,4.7
2023-03-24T12:22:03.732Z,3.8
2023-03-24T12:25:05.794Z,4
2023-03-24T12:28:13.111Z,4.1
2023-03-24T12:31:37.544Z,3.8
2023-03-24T12:34:41.008Z,4.2
2023-03-24T12:37:50.891Z,3
2023-03-24T12:40:49.536Z,3.7
2023-03-24T12:43:56.942Z,3.5
2023-03-24T12:47:07.541Z,3.4
2023-03-24T12:50:15.855Z,3.4
2023-03-24T12:53:18.400Z,3.2
2023-03-24T12:56:17.488Z,3.1
2023-03-24T12:59:11.253Z,3
2023-03-24T13:02:05.255Z,3
2023-03-24T13:05:07.207Z,2.8
2023-03-24T13:08:03.350Z,2.7
2023-03-24T13:11:01.089Z,2.4
2023-03-24T13:13:54.901Z,2.2
2023-03-24T13:16:45.683Z,2.2
2023-03-24T13:19:35.100Z,1.9
2023-03-24T13:22:23.486Z,1.8
2023-03-24T13:25:12.557Z,2
2023-03-24T13:28:12.915Z,2.3
2023-03-24T13:31:08.151Z,2.3
2023-03-24T13:33:57.856Z,2.1
2023-03-24T13:36:47.973Z,2.1
2023-03-24T13:39:41.589Z,2.1
2023-03-24T13:42:32.133Z,2.4
2023-03-24T13:45:27.248Z,2.1
2023-03-24T13:48:25.178Z,2.1
2023-03-24T13:51:21.163Z,2.5
2023-03-24T13:54:15.059Z,2.3
2023-03-24T13:57:06.640Z,2.3
2023-03-24T14:00:06.857Z,2.7
2023-03-24T14:03:05.914Z,2.2
2023-03-24T14:06:18.094Z,2.1
2023-03-24T14:09:31.534Z,2
2023-03-24T14:12:21.098Z,2.5
2023-03-24T14:15:09.425Z,2
2023-03-24T14:18:03.148Z,1.9
2023-03-24T14:21:26.066Z,1.9
2023-03-24T14:24:15.468Z,2.5
2023-03-24T14:27:10.530Z,2
2023-03-24T14:30:20.551Z,1.8
2023-03-24T14:33:12.995Z,1.9
2023-03-24T14:36:10.985Z,2
2023-03-24T14:39:08.130Z,1.9
2023-03-24T14:42:05.742Z,2.1
2023-03-24T14:45:37.046Z,2
2023-03-24T14:48:40.471Z,2.1
2023-03-24T14:51:37.505Z,1.6
2023-03-24T14:54:29.159Z,1.8
2023-03-24T14:57:24.116Z,1.8
2023-03-24T15:00:14.693Z,1.8
2023-03-24T15:03:08.622Z,1.8
2023-03-24T15:06:08.200Z,1.6
2023-03-24T15:09:00.425Z,2.5
2023-03-24T15:11:55.598Z,2.9
2023-03-24T15:14:45.883Z,2.4
2023-03-24T15:17:35.365Z,2.3
2023-03-24T15:20:23.540Z,2.6
2023-03-24T15:23:14.158Z,2.5
2023-03-24T15:26:04.928Z,1.9
2023-03-24T15:28:58.366Z,2
2023-03-24T15:31:51.217Z,1.9
2023-03-24T15:34:41.699Z,1.9
2023-03-24T15:37:37.522Z,2
2023-03-24T15:40:32.821Z,1.9
2023-03-24T15:43:25.451Z,2.2
2023-03-24T15:46:13.433Z,2.3
2023-03-24T15:49:12.846Z,1.9
2023-03-24T15:52:09.322Z,1.9
2023-03-24T15:55:13.131Z,2.1
2023-03-24T15:58:12.293Z,1.9
2023-03-24T16:01:08.522Z,1.9
2023-03-24T16:03:58.968Z,1.5
2023-03-24T16:06:52.267Z,1.9
2023-03-24T16:09:42.570Z,1.8
2023-03-24T16:12:40.838Z,1.8
2023-03-24T16:15:28.527Z,1.9
2023-03-24T16:18:16.157Z,1.9
2023-03-24T16:21:08.685Z,1.8
2023-03-24T16:23:59.065Z,1.8
2023-03-24T16:26:47.308Z,1.4
2023-03-24T16:29:35.811Z,1.8
2023-03-24T16:32:23.423Z,1.8
2023-03-24T16:35:10.996Z,1.5
2023-03-24T16:37:58.793Z,2
2023-03-24T16:40:47.212Z,2.7
2023-03-24T16:43:37.542Z,2
2023-03-24T16:46:26.600Z,2.3
2023-03-24T16:49:18.070Z,2.5
2023-03-24T16:52:06.909Z,2
2023-03-24T16:54:57.861Z,2.6
2023-03-24T16:57:45.772Z,3
2023-03-24T17:00:34.851Z,2.9
2023-03-24T17:03:23.068Z,3.5
2023-03-24T17:06:14.310Z,3.5
2023-03-24T17:09:03.058Z,3.3
2023-03-24T17:11:51.566Z,2.8
2023-03-24T17:14:41.147Z,3
2023-03-24T17:17:28.733Z,3.1
2023-03-24T17:20:16.344Z,3
2023-03-24T17:23:05.676Z,3.3
2023-03-24T17:25:55.209Z,2.8
2023-03-24T17:28:43.023Z,2.5
2023-03-24T17:31:31.836Z,3.1
2023-03-24T17:34:22.196Z,2.8
2023-03-24T17:37:10.251Z,3
2023-03-24T17:39:58.118Z,2.8
2023-03-24T17:42:47.379Z,2.8
2023-03-24T17:45:35.196Z,3.5
2023-03-24T17:48:24.723Z,3.5
2023-03-24T17:51:12.900Z,3.7
2023-03-24T17:54:01.414Z,3.1
2023-03-24T17:56:50.184Z,3.1
2023-03-24T17:59:37.955Z,3.7
2023-03-24T18:02:25.874Z,3.1
2023-03-24T18:05:13.740Z,3
2023-03-24T18:08:01.426Z,2.6
2023-03-24T18:10:50.700Z,2.5
2023-03-24T18:13:38.502Z,3.4
2023-03-24T18:16:26.374Z,3.7
2023-03-24T18:19:15.412Z,2.9
2023-03-24T18:22:03.600Z,3.1
2023-03-24T18:24:51.549Z,3.5
2023-03-24T18:27:39.340Z,3.7
2023-03-24T18:30:27.457Z,4.7
2023-03-24T18:33:15.833Z,4.6
2023-03-24T18:36:03.685Z,4.5
2023-03-24T18:38:52.574Z,4.3
2023-03-24T18:41:43.225Z,5.2
2023-03-24T18:44:32.685Z,5.2
2023-03-24T18:47:21.029Z,4.8
2023-03-24T18:50:09.641Z,5.4
2023-03-24T18:52:57.284Z,4.5
2023-03-24T18:55:45.946Z,4.5
2023-03-24T18:58:36.134Z,4
2023-03-24T19:01:23.950Z,6.6
2023-03-24T19:04:11.702Z,4.2
2023-03-24T19:06:59.443Z,4.8
2023-03-24T19:09:52.508Z,4.2
2023-03-24T19:12:41.041Z,4.5
2023-03-24T19:15:28.665Z,4
2023-03-24T19:18:20.061Z,3.8
2023-03-24T19:21:08.067Z,4.3
2023-03-24T19:23:56.303Z,3.8
2023-03-24T19:26:44.453Z,3.6
2023-03-24T19:29:33.261Z,4.2
2023-03-24T19:32:21.193Z,4
2023-03-24T19:35:08.816Z,3.7
2023-03-24T19:37:56.668Z,3.3
2023-03-24T19:40:45.287Z,4.3
2023-03-24T19:43:34.046Z,4.5
2023-03-24T19:46:21.876Z,3.5
2023-03-24T19:49:09.848Z,3.8
2023-03-24T19:51:57.737Z,3.5
2023-03-24T19:54:45.683Z,3.7
2023-03-24T19:57:37.121Z,4.1
2023-03-24T20:00:25.230Z,3.9
2023-03-24T20:03:13.088Z,3.7
2023-03-24T20:06:01.040Z,4.4
2023-03-24T20:08:52.663Z,3.3
2023-03-24T20:11:40.895Z,3.8
2023-03-24T20:14:28.689Z,4.2
2023-03-24T20:17:16.730Z,4.6
2023-03-24T20:20:06.262Z,5.2
2023-03-24T20:22:56.276Z,4.9
2023-03-24T20:25:44.493Z,4.7
2023-03-24T20:28:33.403Z,5.1
2023-03-24T20:31:21.283Z,4.6
2023-03-24T20:34:09.682Z,5.1
2023-03-24T20:36:57.428Z,4.9
2023-03-24T20:39:45.292Z,5.1
2023-03-24T20:42:34.400Z,5.4
2023-03-24T20:45:22.650Z,5
2023-03-24T20:48:11.490Z,5.6
2023-03-24T20:50:59.048Z,5.5
2023-03-24T20:53:49.644Z,4.9
2023-03-24T20:56:37.957Z,5.2
2023-03-24T20:59:26.004Z,4.9
2023-03-24T21:02:13.687Z,5.2
2023-03-24T21:05:03.484Z,5
2023-03-24T21:07:52.443Z,5.1
2023-03-24T21:10:39.929Z,4.7
2023-03-24T21:16:16.112Z,5
2023-03-24T21:19:04.481Z,5
2023-03-24T21:21:55.011Z,5.4
2023-03-24T21:24:42.892Z,5.3
2023-03-24T21:27:31.657Z,6.1
2023-03-24T21:30:19.338Z,4.4
2023-03-24T21:33:08.293Z,5.2
2023-03-24T21:35:56.591Z,5.6
2023-03-24T21:38:44.544Z,5.2
2023-03-24T21:41:34.255Z,4.2
2023-03-24T21:44:23.484Z,4.8
2023-03-24T21:47:11.026Z,5.1
2023-03-24T21:49:59.636Z,4.8
2023-03-24T21:52:47.969Z,4.9
2023-03-24T21:55:37.072Z,4.5
2023-03-24T21:58:24.740Z,5
2023-03-24T22:01:13.674Z,4.5
2023-03-24T22:04:01.423Z,4.3
2023-03-24T22:06:50.591Z,4.2
2023-03-24T22:09:39.052Z,3.8
2023-03-24T22:12:27.723Z,4.9
2023-03-24T22:15:15.325Z,4.7
2023-03-24T22:18:03.682Z,5.3
2023-03-24T22:20:51.995Z,4.8
2023-03-24T22:23:45.911Z,4.6
2023-03-24T22:26:34.589Z,5.7
2023-03-24T22:29:22.203Z,5.1
2023-03-24T22:32:10.940Z,4.8
2023-03-24T22:34:58.589Z,5.3
2023-03-24T22:37:46.719Z,4.8
2023-03-24T22:40:35.249Z,5.1
2023-03-24T22:43:23.623Z,4.8
2023-03-24T22:46:12.188Z,5.7
2023-03-24T22:49:00.137Z,4.7
2023-03-24T22:51:48.583Z,4.8
2023-03-24T22:54:36.731Z,5.8
2023-03-24T22:57:25.047Z,4.7
2023-03-24T23:00:13.064Z,5.4
2023-03-24T23:03:03.820Z,5.5
2023-03-24T23:05:51.826Z,4.9
2023-03-24T23:08:41.334Z,5.8
2023-03-24T23:11:29.711Z,5.4
2023-03-24T23:14:18.227Z,5
2023-03-24T23:17:06.034Z,5.2
2023-03-24T23:19:54.083Z,5.9
2023-03-24T23:22:41.731Z,5
2023-03-24T23:25:29.284Z,5.5
2023-03-24T23:28:17.258Z,5.4
2023-03-24T23:31:05.011Z,4.5
2023-03-24T23:33:58.072Z,5
2023-03-24T23:36:46.466Z,4.9
2023-03-24T23:39:35.231Z,5.1
2023-03-24T23:42:22.965Z,4.6
2023-03-24T23:45:10.665Z,5.6
2023-03-24T23:48:02.563Z,5.5
2023-03-24T23:50:51.278Z,4.9
2023-03-24T23:53:41.361Z,5.5
2023-03-24T23:56:28.993Z,5.1
2023-03-24T23:59:21.893Z,6.1
